Time;durP1;ratioP1;P1;durP2;ratioP2;P2;SDS_P1;SDS_P2;PMS_P1;PMS_P2;Temp;Humidity;BMP_temperature;BMP_pressure;BME280_temperature;BME280_humidity;BME280_pressure;Samples;Min_cycle;Max_cycle;Signal;HPM_P1;HPM_P2
2023/08/29 00:01:27;;;;;;;15.30;11.50;;;17.90;99.90;;;;;;5034081;28;20022;-79
2023/08/29 00:03:55;;;;;;;14.70;10.27;;;17.90;99.90;;;;;;5036844;28;20041;-78
2023/08/29 00:06:21;;;;;;;16.02;10.60;;;17.90;99.90;;;;;;5020192;28;20021;-78
2023/08/29 00:08:47;;;;;;;18.70;11.80;;;18.00;99.90;;;;;;5029472;28;20017;-76
2023/08/29 00:11:12;;;;;;;18.70;12.00;;;18.00;99.90;;;;;;5033832;28;20021;-78
2023/08/29 00:13:38;;;;;;;13.52;11.13;;;18.00;99.90;;;;;;5033634;28;20029;-76
2023/08/29 00:16:03;;;;;;;13.82;10.77;;;18.00;99.90;;;;;;5029533;28;20098;-79
2023/08/29 00:18:29;;;;;;;16.48;10.68;;;18.00;99.90;;;;;;5036421;28;20517;-76
2023/08/29 00:20:55;;;;;;;16.58;10.82;;;18.00;99.90;;;;;;5034610;28;20402;-79
2023/08/29 00:23:20;;;;;;;14.93;10.77;;;18.00;99.90;;;;;;5035584;28;20018;-77
2023/08/29 00:25:46;;;;;;;17.40;11.70;;;18.00;99.90;;;;;;5031650;28;20079;-79
2023/08/29 00:28:12;;;;;;;17.40;13.35;;;17.90;99.90;;;;;;5036583;28;20045;-76
2023/08/29 00:30:39;;;;;;;21.35;12.52;;;17.90;99.90;;;;;;5022707;28;20049;-76
2023/08/29 00:33:05;;;;;;;18.77;12.77;;;17.80;99.90;;;;;;5031103;28;20039;-79
2023/08/29 00:35:31;;;;;;;18.70;12.65;;;17.70;99.90;;;;;;5042613;28;20036;-75
2023/08/29 00:37:58;;;;;;;20.63;13.45;;;17.70;99.90;;;;;;5038620;28;20033;-79
2023/08/29 00:40:30;;;;;;;21.75;14.38;;;17.60;99.90;;;;;;5050908;28;20021;-75
2023/08/29 00:43:00;;;;;;;23.63;15.05;;;17.60;99.90;;;;;;5051448;28;20045;-79
2023/08/29 00:45:28;;;;;;;21.23;14.98;;;17.60;99.90;;;;;;5038275;28;20043;-79
2023/08/29 00:47:53;;;;;;;21.20;13.80;;;17.60;99.90;;;;;;5043985;28;20063;-75
2023/08/29 00:50:19;;;;;;;18.48;13.90;;;17.60;99.90;;;;;;5032588;28;20466;-75
2023/08/29 00:52:45;;;;;;;18.55;14.48;;;17.60;99.90;;;;;;5032051;28;20075;-79
2023/08/29 00:55:11;;;;;;;21.10;13.55;;;17.50;99.90;;;;;;5022934;28;20048;-75
2023/08/29 00:57:37;;;;;;;18.85;14.27;;;17.50;99.90;;;;;;5037828;28;20073;-75
2023/08/29 01:00:03;;;;;;;19.80;15.00;;;17.50;99.90;;;;;;5050637;28;20025;-79
2023/08/29 01:02:29;;;;;;;24.52;17.08;;;17.60;99.90;;;;;;5051260;28;20108;-76
2023/08/29 01:04:54;;;;;;;20.70;16.55;;;17.60;99.90;;;;;;5038843;28;20094;-75
2023/08/29 01:07:20;;;;;;;22.55;14.65;;;17.60;99.90;;;;;;5031998;28;20147;-76
2023/08/29 01:09:46;;;;;;;18.52;14.52;;;17.60;99.90;;;;;;5032235;28;20021;-75
2023/08/29 01:12:16;;;;;;;27.13;18.77;;;17.50;99.90;;;;;;5043519;28;20432;-76
2023/08/29 01:14:47;;;;;;;27.00;17.83;;;17.50;99.90;;;;;;5043351;28;20032;-79
2023/08/29 01:17:44;;;;;;;22.83;16.00;;;17.50;99.90;;;;;;5037966;28;20025;-79
2023/08/29 01:20:13;;;;;;;22.45;16.02;;;17.50;99.90;;;;;;5053034;28;20060;-75
2023/08/29 01:22:52;;;;;;;22.17;17.38;;;17.60;99.90;;;;;;5030703;28;20037;-76
2023/08/29 01:25:31;;;;;;;22.33;17.10;;;17.60;99.90;;;;;;5020301;28;20021;-78
2023/08/29 01:27:57;;;;;;;23.45;16.88;;;17.50;99.90;;;;;;5042708;28;20018;-79
2023/08/29 01:30:23;;;;;;;28.42;18.70;;;17.50;99.90;;;;;;5022415;28;20113;-75
2023/08/29 01:32:50;;;;;;;25.02;20.20;;;17.40;99.90;;;;;;5026990;28;20024;-78
2023/08/29 01:35:15;;;;;;;29.30;21.63;;;17.30;99.90;;;;;;5030634;28;20029;-76
2023/08/29 01:37:41;;;;;;;29.13;20.42;;;17.30;99.90;;;;;;5031664;28;21530;-78
2023/08/29 01:40:07;;;;;;;34.08;24.85;;;17.10;99.90;;;;;;5030522;28;20022;-75
2023/08/29 01:42:33;;;;;;;30.58;21.38;;;17.00;99.90;;;;;;5031669;28;20029;-78
2023/08/29 01:44:59;;;;;;;26.92;20.27;;;16.90;99.90;;;;;;5031596;28;20030;-78
2023/08/29 01:47:25;;;;;;;29.38;20.85;;;16.90;99.90;;;;;;5030324;28;20029;-75
2023/08/29 01:49:51;;;;;;;26.38;19.73;;;16.90;99.90;;;;;;5031532;28;20029;-79
2023/08/29 01:52:17;;;;;;;28.30;21.17;;;16.80;99.90;;;;;;5030288;28;20394;-79
2023/08/29 01:54:43;;;;;;;26.55;19.88;;;16.80;99.90;;;;;;5031505;28;20029;-78
2023/08/29 01:57:12;;;;;;;27.80;19.63;;;16.80;99.90;;;;;;5046819;28;20036;-78
2023/08/29 01:59:38;;;;;;;26.88;20.83;;;16.80;99.90;;;;;;5040996;28;20444;-79
2023/08/29 02:02:03;;;;;;;26.98;19.35;;;16.70;99.90;;;;;;5043869;28;20409;-78
2023/08/29 02:04:29;;;;;;;22.10;17.90;;;16.70;99.90;;;;;;5041185;28;20026;-76
2023/08/29 02:06:55;;;;;;;28.30;19.17;;;16.70;99.90;;;;;;5032771;28;20032;-79
2023/08/29 02:09:20;;;;;;;25.10;19.00;;;16.70;99.90;;;;;;5051133;28;20513;-75
2023/08/29 02:11:46;;;;;;;27.85;18.20;;;16.70;99.90;;;;;;5036936;28;20028;-75
2023/08/29 02:14:12;;;;;;;26.58;17.17;;;16.70;99.90;;;;;;5039214;28;20041;-75
2023/08/29 02:16:38;;;;;;;25.95;17.83;;;16.60;99.90;;;;;;5029449;28;20021;-78
2023/08/29 02:19:04;;;;;;;23.27;17.77;;;16.50;99.90;;;;;;5013773;28;20033;-78
2023/08/29 02:21:30;;;;;;;24.38;17.83;;;16.50;99.90;;;;;;5016180;28;20101;-78
2023/08/29 02:23:57;;;;;;;24.70;18.98;;;16.50;99.90;;;;;;5024372;28;20154;-78
2023/08/29 02:26:22;;;;;;;23.48;17.08;;;16.50;99.90;;;;;;5037114;28;20466;-76
2023/08/29 02:28:53;;;;;;;23.05;16.17;;;16.50;99.90;;;;;;5034107;28;20129;-77
2023/08/29 02:31:19;;;;;;;25.45;17.25;;;16.40;99.90;;;;;;5037355;28;20047;-76
2023/08/29 02:33:45;;;;;;;24.83;15.75;;;16.40;99.90;;;;;;5042449;28;20014;-75
2023/08/29 02:36:10;;;;;;;20.90;15.98;;;16.40;99.90;;;;;;5019579;28;20048;-79
2023/08/29 02:38:36;;;;;;;21.90;15.60;;;16.40;99.90;;;;;;5030301;28;20118;-79
2023/08/29 02:41:02;;;;;;;19.08;14.38;;;16.40;99.90;;;;;;5029533;28;20378;-78
2023/08/29 02:43:28;;;;;;;18.90;14.65;;;16.40;99.90;;;;;;5031687;28;20029;-78
2023/08/29 02:45:54;;;;;;;25.80;17.20;;;16.40;99.90;;;;;;5049634;28;20021;-79
2023/08/29 02:48:19;;;;;;;19.45;15.43;;;16.40;99.90;;;;;;5035403;28;20086;-75
2023/08/29 02:50:48;;;;;;;22.42;15.48;;;16.40;99.90;;;;;;5035286;28;20467;-79
2023/08/29 02:53:17;;;;;;;19.15;16.05;;;16.40;99.90;;;;;;5018940;28;20474;-76
2023/08/29 02:55:43;;;;;;;23.40;17.70;;;16.50;99.90;;;;;;5030405;28;20478;-78
2023/08/29 02:58:08;;;;;;;24.23;18.63;;;16.40;99.90;;;;;;5030379;28;20078;-76
2023/08/29 03:00:35;;;;;;;23.00;17.90;;;16.40;99.90;;;;;;5030414;28;20368;-78
2023/08/29 03:03:01;;;;;;;26.58;16.88;;;16.40;99.90;;;;;;5030598;28;20066;-76
2023/08/29 03:05:26;;;;;;;23.30;17.70;;;16.40;99.90;;;;;;5030627;28;20522;-75
2023/08/29 03:07:52;;;;;;;26.17;18.55;;;16.40;99.90;;;;;;5030442;28;20032;-75
2023/08/29 03:10:17;;;;;;;26.30;18.65;;;16.40;99.90;;;;;;5029031;28;20371;-78
2023/08/29 03:12:43;;;;;;;28.73;20.10;;;16.40;99.90;;;;;;5028641;28;20081;-76
2023/08/29 03:15:09;;;;;;;24.95;18.20;;;16.40;99.90;;;;;;5030568;28;20049;-79
2023/08/29 03:17:35;;;;;;;23.90;16.98;;;16.40;99.90;;;;;;5030157;28;20042;-76
2023/08/29 03:20:00;;;;;;;36.85;20.38;;;16.40;99.90;;;;;;5030169;28;20394;-75
2023/08/29 03:22:26;;;;;;;27.08;20.08;;;16.50;99.90;;;;;;5032571;28;20013;-75
2023/08/29 03:24:52;;;;;;;29.88;20.35;;;16.50;99.90;;;;;;5036574;28;20443;-75
2023/08/29 03:27:17;;;;;;;32.42;20.20;;;16.50;99.90;;;;;;5026194;28;20021;-76
2023/08/29 03:29:43;;;;;;;34.35;20.20;;;16.50;99.90;;;;;;5034009;28;20049;-76
2023/08/29 03:32:08;;;;;;;30.70;19.92;;;16.50;99.90;;;;;;5030103;28;20471;-78
2023/08/29 03:34:34;;;;;;;29.65;19.38;;;16.50;99.90;;;;;;5029838;28;20062;-78
2023/08/29 03:37:00;;;;;;;26.70;18.65;;;16.60;99.90;;;;;;5029825;28;20045;-76
2023/08/29 03:39:25;;;;;;;31.75;20.83;;;16.60;99.90;;;;;;5028175;28;20069;-78
2023/08/29 03:41:51;;;;;;;31.15;19.27;;;16.60;99.90;;;;;;5037155;28;20035;-76
2023/08/29 03:44:16;;;;;;;28.15;18.60;;;16.70;99.90;;;;;;5041157;28;20021;-79
2023/08/29 03:46:42;;;;;;;26.90;19.63;;;16.70;99.90;;;;;;5036274;28;20116;-79
2023/08/29 03:49:08;;;;;;;37.92;23.15;;;16.70;99.90;;;;;;5041402;28;20112;-78
2023/08/29 03:51:34;;;;;;;32.72;20.05;;;16.70;99.90;;;;;;5028623;28;20029;-78
2023/08/29 03:53:59;;;;;;;26.85;18.58;;;16.60;99.90;;;;;;5029705;28;20024;-79
2023/08/29 03:56:25;;;;;;;24.88;17.15;;;16.60;99.90;;;;;;5043931;28;20099;-75
2023/08/29 03:58:51;;;;;;;26.38;18.02;;;16.60;99.90;;;;;;5038181;28;20048;-77
2023/08/29 04:01:19;;;;;;;24.73;17.70;;;16.60;99.90;;;;;;5040515;28;20021;-75
2023/08/29 04:03:45;;;;;;;26.17;17.65;;;16.60;99.90;;;;;;5039049;28;20056;-76
2023/08/29 04:06:11;;;;;;;27.23;18.10;;;16.60;99.90;;;;;;5053105;28;20029;-75
2023/08/29 04:08:36;;;;;;;28.25;19.38;;;16.60;99.90;;;;;;5038885;28;20385;-78
2023/08/29 04:11:05;;;;;;;24.00;16.42;;;16.70;99.90;;;;;;5040128;28;20047;-79
2023/08/29 04:13:33;;;;;;;27.30;18.02;;;16.70;99.90;;;;;;5050289;28;20070;-76
2023/08/29 04:16:02;;;;;;;23.88;16.75;;;16.70;99.90;;;;;;5039242;28;20108;-76
2023/08/29 04:18:30;;;;;;;26.92;16.35;;;16.70;99.90;;;;;;5033019;28;20375;-79
2023/08/29 04:20:56;;;;;;;23.70;16.25;;;16.70;99.90;;;;;;5031681;28;20029;-75
2023/08/29 04:23:22;;;;;;;27.98;19.33;;;16.70;99.90;;;;;;5031416;28;20124;-77
2023/08/29 04:25:48;;;;;;;26.50;18.20;;;16.80;99.90;;;;;;5024628;28;20025;-79
2023/08/29 04:28:19;;;;;;;28.70;19.52;;;16.80;99.90;;;;;;5040285;28;20025;-75
2023/08/29 04:30:45;;;;;;;25.70;17.35;;;16.80;99.90;;;;;;5042182;28;20053;-79
2023/08/29 04:33:11;;;;;;;28.67;17.75;;;16.80;99.90;;;;;;5045581;28;20069;-79
2023/08/29 04:35:36;;;;;;;28.05;18.73;;;16.80;99.90;;;;;;5032643;28;20033;-79
2023/08/29 04:38:02;;;;;;;28.15;17.90;;;16.80;99.90;;;;;;5024053;28;20041;-79
2023/08/29 04:40:28;;;;;;;27.08;19.45;;;16.80;99.90;;;;;;5027438;28;20029;-76
2023/08/29 04:42:53;;;;;;;26.33;17.92;;;16.90;99.90;;;;;;5022979;28;20034;-76
2023/08/29 04:45:19;;;;;;;26.45;17.67;;;16.90;99.90;;;;;;5026693;28;20560;-76
2023/08/29 04:47:45;;;;;;;27.88;18.75;;;16.90;99.90;;;;;;5023445;28;20026;-75
2023/08/29 04:50:11;;;;;;;27.95;17.65;;;16.90;99.90;;;;;;5027491;28;20024;-75
2023/08/29 04:52:36;;;;;;;25.02;18.02;;;16.90;99.90;;;;;;5027966;28;20033;-75
2023/08/29 04:55:05;;;;;;;27.25;17.15;;;16.90;99.90;;;;;;5030689;28;20022;-75
2023/08/29 04:57:33;;;;;;;27.73;17.92;;;16.90;99.90;;;;;;5030677;28;20032;-78
2023/08/29 05:00:00;;;;;;;25.10;16.35;;;16.90;99.90;;;;;;5031127;28;20225;-78
2023/08/29 05:02:26;;;;;;;19.63;13.90;;;16.90;99.90;;;;;;5038754;28;20018;-79
2023/08/29 05:04:52;;;;;;;21.80;15.07;;;16.90;99.90;;;;;;5031094;28;20048;-75
2023/08/29 05:07:18;;;;;;;24.67;16.33;;;17.00;99.90;;;;;;5023453;28;20010;-79
2023/08/29 05:09:44;;;;;;;18.80;14.35;;;17.00;99.90;;;;;;5029376;28;20025;-79
2023/08/29 05:12:10;;;;;;;21.60;15.38;;;17.00;99.90;;;;;;5031881;28;20355;-76
2023/08/29 05:14:39;;;;;;;18.73;13.85;;;17.10;99.90;;;;;;5026017;28;20017;-79
2023/08/29 05:17:05;;;;;;;20.42;13.70;;;17.10;99.90;;;;;;5022435;28;20414;-75
2023/08/29 05:19:31;;;;;;;19.15;13.00;;;17.10;99.90;;;;;;5025006;28;20049;-79
2023/08/29 05:21:57;;;;;;;20.35;13.98;;;17.10;99.90;;;;;;5030495;28;20053;-79
2023/08/29 05:24:22;;;;;;;21.92;13.73;;;17.10;99.90;;;;;;5022657;28;20022;-79
2023/08/29 05:26:49;;;;;;;19.30;13.45;;;17.20;99.90;;;;;;5024990;28;20065;-79
2023/08/29 05:29:14;;;;;;;21.30;14.40;;;17.20;99.90;;;;;;5033477;28;20062;-79
2023/08/29 05:31:40;;;;;;;21.50;15.55;;;17.20;99.90;;;;;;5041840;28;20424;-76
2023/08/29 05:34:06;;;;;;;21.17;15.75;;;17.20;99.90;;;;;;5035984;28;20018;-79
2023/08/29 05:36:31;;;;;;;20.08;14.35;;;17.30;99.90;;;;;;5032772;28;20171;-79
2023/08/29 05:38:57;;;;;;;19.75;14.40;;;17.30;99.90;;;;;;5031655;28;20037;-79
2023/08/29 05:41:22;;;;;;;19.42;13.05;;;17.30;99.90;;;;;;5031947;28;20075;-79
2023/08/29 05:43:48;;;;;;;18.05;12.98;;;17.20;99.90;;;;;;5024388;28;20028;-76
2023/08/29 05:46:14;;;;;;;16.58;12.50;;;17.30;99.90;;;;;;5018523;28;20105;-76
2023/08/29 05:48:40;;;;;;;18.63;12.55;;;17.30;99.90;;;;;;5021642;28;20029;-76
2023/08/29 05:51:05;;;;;;;18.67;12.90;;;17.30;99.90;;;;;;5023440;28;20033;-75
2023/08/29 05:53:31;;;;;;;14.77;11.82;;;17.20;99.90;;;;;;5035263;28;20104;-79
2023/08/29 05:55:56;;;;;;;18.02;12.50;;;17.30;99.90;;;;;;5031944;28;20028;-78
2023/08/29 05:58:22;;;;;;;17.70;12.55;;;17.30;99.90;;;;;;5026478;28;20033;-76
2023/08/29 06:00:48;;;;;;;18.83;11.95;;;17.20;99.90;;;;;;5028816;28;20447;-79
2023/08/29 06:03:14;;;;;;;18.45;11.90;;;17.20;99.90;;;;;;5030507;28;20021;-78
2023/08/29 06:05:43;;;;;;;17.10;11.77;;;17.20;99.90;;;;;;5028084;28;20379;-79
2023/08/29 06:08:08;;;;;;;14.55;10.88;;;17.30;99.90;;;;;;5032038;28;20246;-78
2023/08/29 06:10:34;;;;;;;12.13;9.60;;;17.30;99.90;;;;;;5032499;28;20025;-79
2023/08/29 06:13:00;;;;;;;18.65;11.02;;;17.40;99.90;;;;;;5041016;28;20021;-76
2023/08/29 06:15:26;;;;;;;17.52;12.30;;;17.40;99.90;;;;;;5044464;28;20025;-75
2023/08/29 06:17:52;;;;;;;16.23;12.23;;;17.40;99.90;;;;;;5035820;28;20398;-78
2023/08/29 06:20:18;;;;;;;17.73;12.68;;;17.50;99.90;;;;;;5034659;28;20036;-76
2023/08/29 06:22:43;;;;;;;16.08;11.38;;;17.50;99.90;;;;;;5041763;28;20031;-78
2023/08/29 06:25:10;;;;;;;14.15;10.80;;;17.60;99.90;;;;;;5032032;28;20034;-79
2023/08/29 06:27:36;;;;;;;15.02;11.25;;;17.70;99.90;;;;;;5033626;28;20036;-75
2023/08/29 06:30:02;;;;;;;16.52;11.75;;;17.70;99.90;;;;;;5044677;28;20410;-76
2023/08/29 06:32:29;;;;;;;11.57;9.65;;;17.80;99.90;;;;;;5034110;28;20025;-75
2023/08/29 06:34:55;;;;;;;14.20;11.15;;;17.80;99.90;;;;;;5028661;28;20063;-78
2023/08/29 06:37:21;;;;;;;13.90;10.82;;;17.90;99.90;;;;;;5037438;28;20041;-76
2023/08/29 06:39:47;;;;;;;11.52;10.10;;;17.90;99.90;;;;;;5036577;28;20117;-76
2023/08/29 06:42:13;;;;;;;15.65;10.73;;;18.00;99.90;;;;;;5023730;28;20113;-76
2023/08/29 06:44:38;;;;;;;13.73;11.68;;;18.10;99.90;;;;;;5043316;28;20398;-80
2023/08/29 06:47:04;;;;;;;14.38;10.88;;;18.10;99.90;;;;;;5034190;28;20116;-80
2023/08/29 06:49:30;;;;;;;15.35;11.88;;;18.20;99.90;;;;;;5027637;28;20022;-80
2023/08/29 06:51:56;;;;;;;13.68;10.25;;;18.20;99.90;;;;;;5026830;28;20596;-80
2023/08/29 06:54:22;;;;;;;13.70;10.23;;;18.20;99.90;;;;;;5026117;28;20041;-80
2023/08/29 06:56:49;;;;;;;10.77;9.00;;;18.30;99.90;;;;;;5027348;28;20053;-79
2023/08/29 06:59:15;;;;;;;13.55;10.65;;;18.40;99.90;;;;;;5027470;28;20402;-80
2023/08/29 07:01:40;;;;;;;10.25;8.90;;;18.50;99.90;;;;;;5029287;28;20082;-80
2023/08/29 07:04:08;;;;;;;11.00;9.20;;;18.60;99.90;;;;;;5028704;28;20040;-80
2023/08/29 07:06:34;;;;;;;15.05;11.50;;;18.60;99.90;;;;;;5026658;28;20025;-80
2023/08/29 07:09:00;;;;;;;17.80;13.35;;;18.60;99.90;;;;;;5028937;28;20024;-80
2023/08/29 07:11:26;;;;;;;18.95;13.75;;;18.50;99.90;;;;;;5029874;28;20113;-80
2023/08/29 07:13:52;;;;;;;17.27;13.30;;;18.40;99.90;;;;;;5031077;28;20102;-79
2023/08/29 07:16:17;;;;;;;22.98;16.60;;;18.40;99.90;;;;;;5007191;28;20042;-80
2023/08/29 07:18:44;;;;;;;24.65;15.52;;;18.40;99.90;;;;;;5026245;28;20029;-80
2023/08/29 07:21:10;;;;;;;21.60;15.18;;;18.40;99.90;;;;;;5028661;28;20034;-79
2023/08/29 07:23:36;;;;;;;21.55;17.05;;;18.40;99.90;;;;;;5033067;28;20398;-80
2023/08/29 07:26:01;;;;;;;17.60;13.35;;;18.40;99.90;;;;;;5079122;27;20080;-80
2023/08/29 07:28:27;;;;;;;17.33;13.60;;;18.50;99.90;;;;;;5040625;27;20108;-79
2023/08/29 07:30:53;;;;;;;17.75;13.55;;;18.60;99.90;;;;;;5026608;28;20124;-80
2023/08/29 07:33:19;;;;;;;17.67;13.77;;;18.80;99.90;;;;;;5028597;28;20030;-79
2023/08/29 07:35:47;;;;;;;18.95;13.68;;;18.80;99.90;;;;;;5028033;28;20045;-79
2023/08/29 07:38:12;;;;;;;14.75;12.27;;;18.80;99.90;;;;;;5025339;28;20039;-79
2023/08/29 07:40:38;;;;;;;16.77;11.40;;;18.90;99.90;;;;;;5028426;28;20461;-81
2023/08/29 07:43:06;;;;;;;15.55;11.95;;;18.90;99.90;;;;;;5028140;28;20041;-80
2023/08/29 07:45:32;;;;;;;14.57;11.38;;;19.00;99.90;;;;;;5027475;28;20063;-81
2023/08/29 07:47:59;;;;;;;13.50;10.75;;;19.20;99.90;;;;;;5028347;28;20059;-79
2023/08/29 07:50:25;;;;;;;13.43;10.95;;;19.20;99.90;;;;;;5015312;28;20034;-79
2023/08/29 07:52:50;;;;;;;13.35;11.10;;;19.40;99.90;;;;;;5018887;28;20478;-79
2023/08/29 07:55:16;;;;;;;13.68;9.80;;;19.60;99.90;;;;;;5021111;28;20054;-80
2023/08/29 07:57:43;;;;;;;12.95;11.55;;;19.90;99.90;;;;;;5028211;28;20104;-80
2023/08/29 08:00:12;;;;;;;15.82;10.55;;;20.20;99.90;;;;;;5028170;28;20044;-81
2023/08/29 08:02:40;;;;;;;10.45;9.32;;;20.40;99.90;;;;;;5022589;28;20483;-81
2023/08/29 08:05:15;;;;;;;13.30;10.65;;;20.50;99.90;;;;;;5026703;28;20389;-81
2023/08/29 08:07:42;;;;;;;12.32;10.73;;;20.60;99.90;;;;;;5024160;28;20406;-81
2023/08/29 08:10:09;;;;;;;10.80;9.43;;;20.80;99.90;;;;;;5029282;28;20064;-81
2023/08/29 08:12:37;;;;;;;10.57;8.48;;;21.00;99.90;;;;;;5029042;28;20576;-80
2023/08/29 08:15:04;;;;;;;9.85;8.85;;;21.30;99.90;;;;;;5026655;28;20086;-79
2023/08/29 08:17:30;;;;;;;10.60;8.95;;;21.60;99.90;;;;;;5027817;28;20028;-78
2023/08/29 08:19:56;;;;;;;9.38;7.45;;;21.90;99.90;;;;;;5026749;28;20031;-77
2023/08/29 08:22:22;;;;;;;8.77;7.65;;;22.10;99.90;;;;;;5032404;28;20376;-78
2023/08/29 08:24:48;;;;;;;12.18;9.93;;;22.20;99.90;;;;;;5030680;28;20715;-77
2023/08/29 08:27:14;;;;;;;8.43;7.53;;;22.20;99.90;;;;;;5091036;28;20022;-77
2023/08/29 08:29:39;;;;;;;10.15;7.80;;;22.30;99.90;;;;;;5028371;28;20029;-78
2023/08/29 08:32:05;;;;;;;8.55;7.75;;;22.40;99.90;;;;;;5021544;28;20033;-78
2023/08/29 08:34:31;;;;;;;14.00;8.15;;;22.60;99.90;;;;;;5026912;28;20550;-77
2023/08/29 08:36:56;;;;;;;8.48;7.45;;;22.50;99.90;;;;;;5038466;27;20046;-77
2023/08/29 08:39:22;;;;;;;8.13;6.82;;;22.50;99.90;;;;;;5010176;28;20114;-77
2023/08/29 08:41:48;;;;;;;8.13;6.63;;;22.50;99.90;;;;;;5027220;28;20026;-78
2023/08/29 08:44:18;;;;;;;7.88;7.07;;;22.60;99.90;;;;;;5042388;28;20058;-77
2023/08/29 08:46:44;;;;;;;7.95;7.15;;;22.70;99.90;;;;;;5030051;28;20394;-82
2023/08/29 08:49:10;;;;;;;12.80;7.13;;;22.80;99.90;;;;;;5023571;28;20101;-82
2023/08/29 08:51:37;;;;;;;7.43;6.72;;;22.80;99.90;;;;;;5027600;28;20487;-82
2023/08/29 08:54:06;;;;;;;8.20;6.93;;;22.90;99.90;;;;;;5029285;28;20029;-82
2023/08/29 08:56:33;;;;;;;7.93;7.13;;;23.00;99.90;;;;;;5029573;28;20641;-82
2023/08/29 08:58:59;;;;;;;7.68;6.90;;;23.10;99.90;;;;;;5033105;28;20135;-81
2023/08/29 09:01:26;;;;;;;8.48;7.18;;;23.20;99.90;;;;;;5037449;28;20021;-81
2023/08/29 09:03:51;;;;;;;6.60;5.97;;;23.40;99.90;;;;;;5027827;28;20037;-80
2023/08/29 09:06:17;;;;;;;10.90;7.47;;;23.40;99.90;;;;;;5032185;28;20044;-76
2023/08/29 09:08:43;;;;;;;7.13;6.28;;;23.40;99.90;;;;;;5032064;28;20026;-80
2023/08/29 09:11:08;;;;;;;8.30;6.28;;;23.60;99.90;;;;;;5030788;28;20021;-77
2023/08/29 09:13:34;;;;;;;7.15;5.70;;;23.70;99.90;;;;;;5030538;28;20056;-75
2023/08/29 09:16:01;;;;;;;7.13;6.30;;;23.70;99.90;;;;;;5030506;28;20028;-76
2023/08/29 09:18:31;;;;;;;6.93;6.22;;;23.80;99.90;;;;;;5034141;28;20037;-81
2023/08/29 09:21:00;;;;;;;7.65;5.40;;;23.80;99.90;;;;;;5030285;28;20047;-80
2023/08/29 09:23:30;;;;;;;8.68;7.30;;;24.00;99.90;;;;;;5034081;28;20026;-81
2023/08/29 09:25:58;;;;;;;6.93;6.32;;;24.30;99.90;;;;;;5030754;28;20387;-81
2023/08/29 09:28:29;;;;;;;7.22;6.53;;;24.40;99.90;;;;;;5044240;28;20401;-81
2023/08/29 09:31:14;;;;;;;6.70;5.97;;;24.50;99.90;;;;;;5030244;28;20078;-81
2023/08/29 09:33:40;;;;;;;6.07;5.50;;;24.80;99.90;;;;;;5027634;28;20086;-82
2023/08/29 09:36:05;;;;;;;7.38;6.65;;;24.90;99.90;;;;;;5029689;28;20053;-81
2023/08/29 09:38:33;;;;;;;6.43;5.80;;;25.00;99.90;;;;;;5036687;28;20091;-81
2023/08/29 09:40:59;;;;;;;6.88;6.03;;;25.20;99.90;;;;;;5025843;28;20062;-81
2023/08/29 09:43:27;;;;;;;7.22;6.03;;;25.50;99.90;;;;;;5030011;28;20057;-81
2023/08/29 09:45:55;;;;;;;7.32;6.63;;;25.70;99.90;;;;;;5037120;28;20045;-76
2023/08/29 09:48:21;;;;;;;7.88;6.63;;;25.80;98.70;;;;;;5031208;28;20436;-77
2023/08/29 09:50:48;;;;;;;6.88;6.22;;;25.90;97.60;;;;;;5041991;28;20018;-76
2023/08/29 09:53:19;;;;;;;6.55;5.78;;;25.80;94.70;;;;;;5045173;28;20021;-76
2023/08/29 09:55:48;;;;;;;7.38;6.40;;;25.70;91.00;;;;;;5031707;28;20025;-75
2023/08/29 09:58:16;;;;;;;7.75;6.68;;;25.80;94.80;;;;;;5031083;28;20033;-80
2023/08/29 10:00:43;;;;;;;6.28;5.68;;;25.80;94.60;;;;;;5031374;28;20032;-80
2023/08/29 10:03:10;;;;;;;10.07;6.30;;;25.90;93.80;;;;;;5033890;28;20040;-76
2023/08/29 10:05:38;;;;;;;7.68;6.97;;;26.00;95.80;;;;;;5037954;28;20078;-76
2023/08/29 10:08:16;;;;;;;8.30;7.30;;;26.00;97.10;;;;;;5035093;28;20013;-80
2023/08/29 10:10:43;;;;;;;7.55;6.85;;;25.70;99.30;;;;;;5036880;28;20013;-75
2023/08/29 10:13:10;;;;;;;7.35;6.65;;;25.60;99.90;;;;;;5042679;28;20087;-76
2023/08/29 10:15:36;;;;;;;7.15;6.45;;;25.70;99.90;;;;;;5030355;28;20029;-79
2023/08/29 10:18:02;;;;;;;9.27;7.32;;;25.70;99.90;;;;;;5035976;28;20033;-76
2023/08/29 10:20:28;;;;;;;8.65;7.78;;;25.80;99.90;;;;;;5028303;28;20014;-76
2023/08/29 10:22:54;;;;;;;7.40;6.70;;;25.90;99.90;;;;;;5031256;28;20026;-80
2023/08/29 10:25:24;;;;;;;6.72;6.13;;;26.00;99.90;;;;;;5028107;28;20037;-80
2023/08/29 10:27:50;;;;;;;7.70;6.18;;;26.00;99.90;;;;;;5028831;28;20504;-76
2023/08/29 10:30:16;;;;;;;7.43;6.78;;;26.10;99.90;;;;;;5032099;28;20112;-76
2023/08/29 10:32:43;;;;;;;8.18;6.55;;;26.20;99.90;;;;;;5034099;28;20443;-76
2023/08/29 10:35:20;;;;;;;7.45;6.75;;;26.20;99.90;;;;;;5040905;28;20029;-76
2023/08/29 10:37:50;;;;;;;8.85;6.90;;;26.10;99.90;;;;;;5031509;28;20041;-76
2023/08/29 10:40:17;;;;;;;6.88;6.22;;;26.20;99.90;;;;;;5035657;28;20021;-76
2023/08/29 10:42:56;;;;;;;7.82;6.82;;;26.20;99.90;;;;;;5028801;28;20067;-76
2023/08/29 10:45:45;;;;;;;7.60;6.90;;;26.10;99.90;;;;;;5025031;28;20482;-76
2023/08/29 10:48:16;;;;;;;7.57;6.78;;;25.90;99.90;;;;;;5037185;28;20021;-76
2023/08/29 10:50:48;;;;;;;7.47;6.57;;;25.90;99.90;;;;;;5027350;28;20030;-76
2023/08/29 10:53:19;;;;;;;7.95;7.15;;;25.90;99.90;;;;;;5029088;28;20057;-76
2023/08/29 10:56:02;;;;;;;9.20;6.97;;;25.90;99.90;;;;;;5021786;28;20025;-76
2023/08/29 10:58:38;;;;;;;7.88;6.18;;;25.90;99.90;;;;;;5035892;28;20070;-76
2023/08/29 11:01:06;;;;;;;8.05;6.88;;;25.90;99.90;;;;;;5029628;28;20029;-81
2023/08/29 11:03:48;;;;;;;9.43;6.93;;;25.90;99.90;;;;;;5042190;28;20036;-81
2023/08/29 11:06:15;;;;;;;8.38;7.57;;;26.00;99.90;;;;;;5027680;28;20078;-76
2023/08/29 11:08:41;;;;;;;8.95;7.60;;;26.00;99.90;;;;;;5030980;28;20022;-76
2023/08/29 11:11:18;;;;;;;7.60;6.90;;;26.10;99.90;;;;;;5029819;28;20074;-81
2023/08/29 11:14:00;;;;;;;9.57;7.28;;;26.00;99.90;;;;;;5030270;28;20546;-81
2023/08/29 11:16:28;;;;;;;10.35;9.20;;;26.10;99.90;;;;;;5035361;28;20021;-81
2023/08/29 11:19:11;;;;;;;12.95;9.15;;;26.00;99.90;;;;;;5042538;28;20065;-76
2023/08/29 11:21:37;;;;;;;9.82;8.13;;;25.90;99.90;;;;;;5017317;28;20420;-76
2023/08/29 11:24:06;;;;;;;9.57;8.57;;;25.80;99.90;;;;;;5043075;28;20050;-76
2023/08/29 11:26:36;;;;;;;9.65;8.05;;;25.80;99.90;;;;;;5024698;28;20022;-75
2023/08/29 11:29:05;;;;;;;10.15;9.15;;;25.80;99.90;;;;;;5022262;28;20029;-76
2023/08/29 11:31:31;;;;;;;9.25;8.10;;;25.90;99.90;;;;;;5030394;28;20037;-76
2023/08/29 11:33:57;;;;;;;10.18;8.68;;;25.70;99.90;;;;;;5045846;28;20031;-81
2023/08/29 11:36:30;;;;;;;11.02;8.23;;;25.70;99.90;;;;;;5039578;28;20045;-76
2023/08/29 11:38:57;;;;;;;10.38;8.73;;;25.60;99.90;;;;;;5029521;28;21625;-80
2023/08/29 11:41:27;;;;;;;9.93;8.57;;;25.60;99.90;;;;;;5029967;28;20037;-79
2023/08/29 11:43:59;;;;;;;10.98;8.60;;;25.60;99.90;;;;;;5026929;28;20371;-81
2023/08/29 11:46:32;;;;;;;10.13;9.15;;;25.50;99.90;;;;;;5033538;28;20044;-80
2023/08/29 11:48:58;;;;;;;11.52;9.70;;;25.40;99.90;;;;;;5030002;28;20025;-76
2023/08/29 11:51:23;;;;;;;14.95;10.60;;;25.40;99.90;;;;;;5028337;28;20402;-80
2023/08/29 11:53:51;;;;;;;15.20;10.25;;;25.30;99.90;;;;;;5027181;28;20029;-81
2023/08/29 11:56:16;;;;;;;11.75;10.52;;;25.40;99.90;;;;;;5030578;28;20110;-76
2023/08/29 11:58:42;;;;;;;11.05;9.63;;;25.30;99.90;;;;;;5031219;28;20071;-80
2023/08/29 12:01:08;;;;;;;13.25;11.30;;;25.30;99.90;;;;;;5025986;28;20158;-80
2023/08/29 12:03:38;;;;;;;13.93;10.48;;;25.10;99.90;;;;;;5028792;28;20029;-80
2023/08/29 12:06:10;;;;;;;13.02;10.90;;;25.00;99.90;;;;;;5019751;28;20021;-80
2023/08/29 12:08:38;;;;;;;13.45;11.13;;;24.90;99.90;;;;;;5028627;28;20512;-80
2023/08/29 12:11:06;;;;;;;19.67;10.88;;;24.80;99.90;;;;;;5036254;28;20043;-81
2023/08/29 12:13:33;;;;;;;14.43;11.48;;;24.70;99.90;;;;;;5030094;28;20078;-80
2023/08/29 12:15:59;;;;;;;13.35;10.73;;;24.70;99.90;;;;;;5035146;28;20525;-76
2023/08/29 12:18:26;;;;;;;20.17;11.00;;;24.60;99.90;;;;;;5039102;28;20085;-81
2023/08/29 12:21:08;;;;;;;13.60;11.48;;;24.60;99.90;;;;;;5031006;28;20381;-81
2023/08/29 12:23:33;;;;;;;13.35;10.82;;;24.50;99.90;;;;;;5028003;28;20018;-81
2023/08/29 12:25:59;;;;;;;14.13;11.63;;;24.40;99.90;;;;;;5081693;27;20084;-81
2023/08/29 12:28:26;;;;;;;14.48;11.82;;;24.40;99.90;;;;;;5044766;27;20047;-81
2023/08/29 12:30:54;;;;;;;16.45;11.52;;;24.30;99.90;;;;;;5031356;28;20022;-81
2023/08/29 12:33:21;;;;;;;14.88;11.05;;;24.20;99.90;;;;;;5031441;28;20129;-81